Time;durP1;ratioP1;P1;durP2;ratioP2;P2;SDS_P1;SDS_P2;PMS_P1;PMS_P2;Temp;Humidity;BMP_temperature;BMP_pressure;BME280_temperature;BME280_humidity;BME280_pressure;Samples;Min_cycle;Max_cycle;Signal;HPM_P1;HPM_P2
2022/08/29 04:51:14;;;;;;;;;;;;;;;22.61;66.30;96990.34;4244512;27;10364;-71
2022/08/29 04:53:17;;;;;;;;;;;;;;;22.88;65.38;97000.97;4231223;28;5746;-71
2022/08/29 04:55:22;;;;;;;;;;;;;;;23.08;64.98;97003.66;4220051;28;5713;-70
2022/08/29 04:57:27;;;;;;;;;;;;;;;23.27;64.95;97000.47;4224748;28;5770;-71
2022/08/29 04:59:30;;;;;;;;;;;;;;;23.39;64.40;97009.91;4233081;27;5783;-71
2022/08/29 05:01:35;;;;;;;;;;;;;;;23.49;64.34;97001.00;4231386;28;5663;-71
2022/08/29 05:03:38;;;;;;;;;;;;;;;23.57;63.80;97002.34;4231112;28;5667;-71
2022/08/29 05:05:41;;;;;;;;;;;;;;;23.63;63.92;97004.00;4231431;28;5671;-71
2022/08/29 05:07:45;;;;;;;;;;;;;;;23.68;63.43;97004.81;4234396;27;5675;-70
2022/08/29 05:09:49;;;;;;;;;;;;;;;23.72;63.09;97016.66;4230887;28;5687;-71
2022/08/29 05:11:52;;;;;;;;;;;;;;;23.74;63.02;97009.09;4227503;28;5680;-71
2022/08/29 05:13:55;;;;;;;;;;;;;;;23.79;63.39;97014.50;4214142;28;5704;-71
2022/08/29 05:15:58;;;;;;;;;;;;;;;23.83;63.13;97009.38;4218470;28;5688;-71
2022/08/29 05:18:00;;;;;;;;;;;;;;;23.86;62.52;97016.91;4214276;28;5689;-70
2022/08/29 05:20:05;;;;;;;;;;;;;;;23.89;62.55;97012.84;4227891;28;5798;-71
2022/08/29 05:22:08;;;;;;;;;;;;;;;23.90;62.48;97015.31;4230951;28;5660;-71
2022/08/29 05:24:13;;;;;;;;;;;;;;;23.92;62.55;97020.44;4234101;27;5865;-71
2022/08/29 05:26:16;;;;;;;;;;;;;;;23.93;62.52;97027.44;4227610;28;5688;-71
2022/08/29 05:28:18;;;;;;;;;;;;;;;23.94;62.06;97024.47;4216624;28;5708;-71
2022/08/29 05:30:21;;;;;;;;;;;;;;;23.96;61.97;97029.59;4218976;28;5873;-72
2022/08/29 05:32:37;;;;;;;;;;;;;;;23.97;62.12;97031.22;4218074;27;5775;-72
2022/08/29 05:34:41;;;;;;;;;;;;;;;24.00;61.95;97038.75;4213592;28;5831;-72
2022/08/29 05:36:44;;;;;;;;;;;;;;;24.00;61.90;97036.06;4218541;28;5865;-72
2022/08/29 05:38:47;;;;;;;;;;;;;;;24.01;61.89;97032.28;4214571;28;5799;-72
2022/08/29 05:40:51;;;;;;;;;;;;;;;24.02;61.99;97042.81;4222592;28;6556;-72
2022/08/29 05:42:54;;;;;;;;;;;;;;;24.04;61.74;97040.66;4218716;27;5105;-73
2022/08/29 05:44:57;;;;;;;;;;;;;;;24.05;61.81;97042.28;4214878;28;5765;-73
2022/08/29 05:47:00;;;;;;;;;;;;;;;24.07;61.17;97050.09;4222013;28;5850;-73
2022/08/29 05:49:05;;;;;;;;;;;;;;;24.08;61.17;97046.31;4214991;28;6313;-73
2022/08/29 05:51:15;;;;;;;;;;;;;;;24.07;61.47;97039.28;4213569;28;5749;-73
2022/08/29 05:53:18;;;;;;;;;;;;;;;24.10;61.18;97044.13;4208753;28;5729;-73
2022/08/29 05:55:21;;;;;;;;;;;;;;;24.11;61.27;97048.47;4202084;28;5803;-73
2022/08/29 05:57:26;;;;;;;;;;;;;;;24.13;61.33;97050.91;4202040;28;5729;-73
2022/08/29 05:59:29;;;;;;;;;;;;;;;24.14;61.09;97045.22;4210336;28;5704;-72
2022/08/29 06:01:33;;;;;;;;;;;;;;;24.16;61.23;97047.66;4206913;28;5675;-72
2022/08/29 06:03:36;;;;;;;;;;;;;;;24.18;60.54;97045.47;4209779;28;5874;-73
2022/08/29 06:05:41;;;;;;;;;;;;;;;24.20;60.96;97052.22;4201539;28;6525;-72
2022/08/29 06:07:44;;;;;;;;;;;;;;;24.20;60.73;97049.53;4207295;28;5688;-72
2022/08/29 06:09:51;;;;;;;;;;;;;;;24.23;60.59;97051.66;4206321;28;5841;-72
2022/08/29 06:11:56;;;;;;;;;;;;;;;24.26;60.86;97058.44;4213225;28;5782;-72
2022/08/29 06:14:04;;;;;;;;;;;;;;;24.26;60.65;97055.72;4206987;28;5085;-72
2022/08/29 06:16:11;;;;;;;;;;;;;;;24.25;60.68;97056.81;4203980;28;5810;-72
2022/08/29 06:18:13;;;;;;;;;;;;;;;24.25;60.31;97068.44;4205809;28;5675;-72
2022/08/29 06:20:17;;;;;;;;;;;;;;;24.30;60.27;97065.75;4204347;28;5919;-72
2022/08/29 06:22:21;;;;;;;;;;;;;;;24.33;60.16;97069.78;4207695;28;5727;-72
2022/08/29 06:24:24;;;;;;;;;;;;;;;24.35;60.37;97064.91;4203275;28;5716;-73
2022/08/29 06:26:27;;;;;;;;;;;;;;;24.39;60.21;97066.00;4218161;28;5794;-73
2022/08/29 06:28:32;;;;;;;;;;;;;;;24.39;60.02;97069.50;4208746;28;5760;-73
2022/08/29 06:30:36;;;;;;;;;;;;;;;24.37;60.29;97066.28;4203550;28;5082;-73
2022/08/29 06:32:40;;;;;;;;;;;;;;;24.39;60.20;97064.09;4202645;28;5844;-73
2022/08/29 06:34:44;;;;;;;;;;;;;;;24.41;59.79;97065.72;4206674;28;5659;-72
2022/08/29 06:36:47;;;;;;;;;;;;;;;24.39;59.96;97074.91;4201753;28;5783;-72
2022/08/29 06:38:52;;;;;;;;;;;;;;;24.43;60.04;97077.06;4211167;28;5842;-72
2022/08/29 06:40:55;;;;;;;;;;;;;;;24.45;59.99;97078.38;4212847;28;5675;-72
2022/08/29 06:42:59;;;;;;;;;;;;;;;24.47;59.70;97086.25;4209578;28;5783;-72
2022/08/29 06:45:04;;;;;;;;;;;;;;;24.49;60.07;97082.19;4209310;28;5720;-72
2022/08/29 06:47:09;;;;;;;;;;;;;;;24.52;59.72;97083.50;4202517;28;5708;-72
2022/08/29 06:49:16;;;;;;;;;;;;;;;24.52;59.66;97084.31;4208325;28;5777;-73
2022/08/29 06:51:20;;;;;;;;;;;;;;;24.50;59.59;97081.09;4210918;28;5800;-72
2022/08/29 06:53:23;;;;;;;;;;;;;;;24.51;59.95;97082.72;4210056;28;5738;-73
2022/08/29 06:55:34;;;;;;;;;;;;;;;24.54;59.70;97086.75;4204035;28;5816;-72
2022/08/29 06:57:41;;;;;;;;;;;;;;;24.53;59.66;97090.53;4201577;28;5720;-73
2022/08/29 06:59:47;;;;;;;;;;;;;;;24.55;59.82;97086.47;4208861;28;5766;-73
2022/08/29 07:01:50;;;;;;;;;;;;;;;24.57;59.45;97091.59;4200321;28;7678;-72
2022/08/29 07:03:57;;;;;;;;;;;;;;;24.58;59.45;97088.63;4204329;28;5700;-72
2022/08/29 07:06:00;;;;;;;;;;;;;;;24.58;59.68;97079.72;4213632;28;5807;-72
2022/08/29 07:08:03;;;;;;;;;;;;;;;24.58;59.43;97082.44;4217684;28;5691;-72
2022/08/29 07:10:07;;;;;;;;;;;;;;;24.59;59.65;97089.44;4206646;28;5791;-72
2022/08/29 07:12:11;;;;;;;;;;;;;;;24.61;59.32;97092.69;4201936;28;5819;-72
2022/08/29 07:14:16;;;;;;;;;;;;;;;24.64;59.51;97086.72;4207814;28;6282;-72
2022/08/29 07:16:19;;;;;;;;;;;;;;;24.64;59.53;97086.72;4206013;28;6360;-72
2022/08/29 07:18:24;;;;;;;;;;;;;;;24.63;59.21;97095.91;4207285;28;5661;-73
2022/08/29 07:20:29;;;;;;;;;;;;;;;24.65;59.39;97099.94;4205648;28;5799;-73
2022/08/29 07:22:34;;;;;;;;;;;;;;;24.67;59.14;97105.06;4202148;28;5677;-73
2022/08/29 07:24:37;;;;;;;;;;;;;;;24.71;58.86;97106.16;4209482;28;5893;-73
2022/08/29 07:26:43;;;;;;;;;;;;;;;24.75;59.12;97106.41;4202108;28;5755;-73
2022/08/29 07:28:48;;;;;;;;;;;;;;;24.77;58.91;97121.25;4207175;28;5757;-73
2022/08/29 07:30:51;;;;;;;;;;;;;;;24.80;58.59;97111.78;4200460;28;5752;-73
2022/08/29 07:32:54;;;;;;;;;;;;;;;24.83;58.90;97117.47;4203088;28;5700;-73
2022/08/29 07:34:57;;;;;;;;;;;;;;;24.84;58.59;97118.28;4202779;28;5815;-73
2022/08/29 07:37:03;;;;;;;;;;;;;;;24.84;58.54;97119.09;4207827;28;5692;-73
2022/08/29 07:39:10;;;;;;;;;;;;;;;24.86;58.83;97114.19;4202545;28;5114;-73
2022/08/29 07:41:14;;;;;;;;;;;;;;;24.88;58.28;97114.72;4206956;28;6441;-73
2022/08/29 07:43:17;;;;;;;;;;;;;;;24.88;58.43;97100.41;4204173;28;5805;-73
2022/08/29 07:45:24;;;;;;;;;;;;;;;24.88;58.59;97098.50;4203614;28;5679;-73
2022/08/29 07:47:27;;;;;;;;;;;;;;;24.90;58.83;97101.75;4199400;28;5906;-73
2022/08/29 07:49:32;;;;;;;;;;;;;;;24.90;58.62;97107.16;4201592;28;5767;-72
2022/08/29 07:51:43;;;;;;;;;;;;;;;24.86;58.35;97108.00;4203342;28;5675;-72
2022/08/29 07:53:52;;;;;;;;;;;;;;;24.81;58.35;97108.84;4204113;28;5684;-72
2022/08/29 07:55:57;;;;;;;;;;;;;;;24.82;58.59;97113.16;4203249;28;5780;-72
2022/08/29 07:58:02;;;;;;;;;;;;;;;24.85;58.74;97115.28;4213057;28;5695;-72
2022/08/29 08:00:08;;;;;;;;;;;;;;;24.88;58.40;97113.94;4209585;28;5794;-72
2022/08/29 08:02:12;;;;;;;;;;;;;;;24.85;58.66;97118.00;4208045;28;5879;-72
2022/08/29 08:04:15;;;;;;;;;;;;;;;24.81;58.41;97114.25;4198807;28;5815;-72
2022/08/29 08:06:22;;;;;;;;;;;;;;;24.74;58.54;97115.59;4202413;28;5663;-72
2022/08/29 08:08:29;;;;;;;;;;;;;;;24.70;58.79;97123.47;4208451;28;5679;-72
2022/08/29 08:10:41;;;;;;;;;;;;;;;24.69;58.74;97116.44;4209831;28;5679;-72
2022/08/29 08:12:47;;;;;;;;;;;;;;;24.71;58.46;97116.16;4211527;28;5675;-72
2022/08/29 08:14:50;;;;;;;;;;;;;;;24.71;58.39;97118.88;4209266;28;5688;-72
2022/08/29 08:16:53;;;;;;;;;;;;;;;24.70;58.67;97122.66;4202977;28;5818;-73
2022/08/29 08:18:56;;;;;;;;;;;;;;;24.72;58.67;97118.59;4204298;28;5708;-72
2022/08/29 08:20:59;;;;;;;;;;;;;;;24.75;58.54;97115.31;4202181;28;5728;-72
2022/08/29 08:23:02;;;;;;;;;;;;;;;24.78;58.46;97117.47;4199316;28;5886;-72
2022/08/29 08:25:06;;;;;;;;;;;;;;;24.79;58.37;97116.38;4208096;28;5671;-72
2022/08/29 08:27:11;;;;;;;;;;;;;;;24.84;58.37;97120.97;4206478;28;5660;-73
2022/08/29 08:29:17;;;;;;;;;;;;;;;24.88;58.25;97116.63;4202307;28;5680;-72
2022/08/29 08:31:22;;;;;;;;;;;;;;;24.92;58.09;97115.00;4207095;28;5692;-73
2022/08/29 08:33:25;;;;;;;;;;;;;;;24.94;58.09;97110.13;4200734;28;5819;-73
2022/08/29 08:35:28;;;;;;;;;;;;;;;24.97;57.72;97113.06;4207296;28;5822;-72
2022/08/29 08:37:32;;;;;;;;;;;;;;;25.00;57.80;97116.31;4201483;28;5689;-72
2022/08/29 08:39:35;;;;;;;;;;;;;;;25.03;57.61;97113.06;4201080;28;5677;-72
2022/08/29 08:41:49;;;;;;;;;;;;;;;25.00;57.51;97109.00;4198725;28;5677;-72
2022/08/29 08:43:56;;;;;;;;;;;;;;;25.03;57.46;97110.38;4206807;28;5687;-72
2022/08/29 08:46:00;;;;;;;;;;;;;;;25.03;57.48;97108.50;4202476;28;5887;-72
2022/08/29 08:48:08;;;;;;;;;;;;;;;25.05;57.69;97114.44;4198057;28;5759;-72
2022/08/29 08:50:20;;;;;;;;;;;;;;;25.08;57.64;97108.47;4199160;28;5875;-73
2022/08/29 08:52:27;;;;;;;;;;;;;;;25.08;57.67;97111.16;4204785;28;5733;-72
2022/08/29 08:54:40;;;;;;;;;;;;;;;25.08;57.46;97118.47;4205344;28;5813;-72
2022/08/29 08:56:46;;;;;;;;;;;;;;;25.08;57.59;97107.66;4201872;28;6449;-73
2022/08/29 08:58:55;;;;;;;;;;;;;;;25.08;57.56;97108.47;4205209;28;5902;-72
2022/08/29 09:01:02;;;;;;;;;;;;;;;25.07;57.12;97108.75;4198380;28;6709;-72
2022/08/29 09:03:14;;;;;;;;;;;;;;;25.08;57.27;97107.66;4205051;28;5944;-72
2022/08/29 09:05:38;;;;;;;;;;;;;;;25.07;57.17;97106.84;4199280;28;6381;-72
2022/08/29 09:07:51;;;;;;;;;;;;;;;25.07;57.13;97109.53;4201317;28;5780;-73
2022/08/29 09:10:10;;;;;;;;;;;;;;;25.09;56.99;97109.25;4206911;28;5745;-73
2022/08/29 09:12:25;;;;;;;;;;;;;;;25.10;56.96;97113.59;4210470;28;5833;-73
2022/08/29 09:14:46;;;;;;;;;;;;;;;25.11;56.87;97109.78;4209224;28;5690;-73
2022/08/29 09:16:52;;;;;;;;;;;;;;;25.12;57.09;97111.41;4210051;28;5659;-73
2022/08/29 09:18:59;;;;;;;;;;;;;;;25.14;57.11;97111.94;4202842;28;5664;-72
2022/08/29 09:21:03;;;;;;;;;;;;;;;25.15;56.94;97113.59;4207660;28;5692;-73
2022/08/29 09:23:32;;;;;;;;;;;;;;;25.17;56.64;97108.69;4202410;28;5853;-73
2022/08/29 09:25:36;;;;;;;;;;;;;;;25.20;56.51;97111.63;4208042;28;5690;-73
2022/08/29 09:27:40;;;;;;;;;;;;;;;25.22;56.57;97114.06;4203849;28;5852;-73
2022/08/29 09:29:44;;;;;;;;;;;;;;;25.21;56.65;97107.03;4207709;28;5663;-73
2022/08/29 09:32:04;;;;;;;;;;;;;;;25.24;56.53;97117.28;4201331;28;5779;-73
2022/08/29 09:34:11;;;;;;;;;;;;;;;25.25;56.57;97113.50;4206784;28;6585;-73
2022/08/29 09:36:16;;;;;;;;;;;;;;;25.30;56.42;97121.59;4211016;28;5714;-73
2022/08/29 09:38:22;;;;;;;;;;;;;;;25.31;56.14;97117.81;4201839;28;5787;-73
2022/08/29 09:40:41;;;;;;;;;;;;;;;25.33;55.76;97114.81;4207201;28;5683;-73
2022/08/29 09:42:51;;;;;;;;;;;;;;;25.35;55.96;97113.44;4204511;28;5784;-73
2022/08/29 09:45:07;;;;;;;;;;;;;;;25.35;55.86;97124.25;4215184;28;6353;-73
2022/08/29 09:47:13;;;;;;;;;;;;;;;25.33;55.87;97115.63;4213588;28;5775;-73
2022/08/29 09:49:17;;;;;;;;;;;;;;;25.29;55.67;97114.56;4213877;28;5679;-73
2022/08/29 09:51:27;;;;;;;;;;;;;;;25.27;56.04;97111.34;4206196;28;5684;-73
2022/08/29 09:53:32;;;;;;;;;;;;;;;25.27;55.92;97103.22;4207270;28;5682;-72
2022/08/29 09:55:38;;;;;;;;;;;;;;;25.29;55.97;97111.88;4202083;28;5705;-72
2022/08/29 09:57:41;;;;;;;;;;;;;;;25.34;55.60;97106.41;4207707;28;5668;-72
2022/08/29 09:59:47;;;;;;;;;;;;;;;25.36;55.75;97104.22;4216335;28;5851;-75
2022/08/29 10:02:23;;;;;;;;;;;;;;;25.39;55.86;97106.41;4213760;28;5677;-75
2022/08/29 10:04:37;;;;;;;;;;;;;;;25.41;55.77;97112.34;4206157;28;5812;-70
2022/08/29 10:06:41;;;;;;;;;;;;;;;25.41;55.56;97112.34;4215131;28;5829;-70
2022/08/29 10:08:57;;;;;;;;;;;;;;;25.42;55.50;97105.81;4208259;28;5675;-70
2022/08/29 10:11:03;;;;;;;;;;;;;;;25.47;55.24;97099.56;4204455;28;5835;-70
2022/08/29 10:13:10;;;;;;;;;;;;;;;25.48;55.31;97102.00;4200424;28;5725;-70
2022/08/29 10:15:20;;;;;;;;;;;;;;;25.46;55.40;97109.59;4207249;28;5716;-70
2022/08/29 10:20:12;;;;;;;;;;;;;;;25.48;55.34;97104.72;4205689;28;5895;-70
2022/08/29 10:22:26;;;;;;;;;;;;;;;25.48;55.27;97107.44;4205180;28;5839;-70
2022/08/29 10:24:47;;;;;;;;;;;;;;;25.48;55.20;97107.44;4205776;28;5783;-70
2022/08/29 10:26:59;;;;;;;;;;;;;;;25.49;55.44;97102.81;4204018;28;5402;-70
2022/08/29 10:29:12;;;;;;;;;;;;;;;25.49;55.40;97098.22;4216929;28;5711;-70
2022/08/29 10:31:25;;;;;;;;;;;;;;;25.51;55.28;97098.72;4208422;28;5754;-69
2022/08/29 10:33:51;;;;;;;;;;;;;;;25.52;54.92;97097.66;4202901;28;5792;-69
2022/08/29 10:36:01;;;;;;;;;;;;;;;25.55;55.27;97094.38;4208407;28;5798;-70
2022/08/29 10:38:16;;;;;;;;;;;;;;;25.58;54.86;97087.56;4209666;28;5795;-69
2022/08/29 10:40:25;;;;;;;;;;;;;;;25.62;54.99;97101.38;4201435;28;5795;-69
2022/08/29 10:42:35;;;;;;;;;;;;;;;25.66;54.87;97094.28;4206176;28;5638;-70
2022/08/29 10:44:54;;;;;;;;;;;;;;;25.68;54.34;97092.09;4209631;28;5803;-70
2022/08/29 10:47:17;;;;;;;;;;;;;;;25.68;54.33;97094.81;4206226;28;5823;-69
2022/08/29 10:49:43;;;;;;;;;;;;;;;25.68;54.41;97098.31;4199533;28;5700;-69
2022/08/29 10:51:56;;;;;;;;;;;;;;;25.70;54.39;97095.38;4211405;28;5794;-70
2022/08/29 10:54:05;;;;;;;;;;;;;;;25.71;54.05;97080.72;4205828;28;5704;-70
2022/08/29 10:56:13;;;;;;;;;;;;;;;25.74;54.02;97085.59;4210164;28;5663;-70
2022/08/29 10:58:35;;;;;;;;;;;;;;;25.76;53.95;97076.09;4212598;28;5790;-69
2022/08/29 11:00:43;;;;;;;;;;;;;;;25.80;53.82;97081.75;4208169;28;5667;-70
2022/08/29 11:02:52;;;;;;;;;;;;;;;25.82;54.05;97076.84;4204518;28;5683;-70
2022/08/29 11:05:00;;;;;;;;;;;;;;;25.86;53.85;97072.50;4211574;28;5743;-70
2022/08/29 11:07:10;;;;;;;;;;;;;;;25.86;53.58;97069.00;4207411;28;5755;-70
2022/08/29 11:09:18;;;;;;;;;;;;;;;25.87;53.51;97071.41;4214919;28;5704;-70
2022/08/29 11:11:28;;;;;;;;;;;;;;;25.88;53.66;97067.59;4212778;28;5750;-70
2022/08/29 11:13:37;;;;;;;;;;;;;;;25.92;53.54;97070.53;4206412;28;5781;-70
2022/08/29 11:15:44;;;;;;;;;;;;;;;25.96;53.33;97060.78;4205274;28;5683;-70
2022/08/29 11:17:56;;;;;;;;;;;;;;;25.95;53.08;97059.97;4206588;28;5875;-71
2022/08/29 11:20:08;;;;;;;;;;;;;;;25.96;53.35;97063.47;4202020;28;5826;-71
2022/08/29 11:22:19;;;;;;;;;;;;;;;25.92;53.01;97068.63;4202360;28;5697;-70
2022/08/29 11:24:22;;;;;;;;;;;;;;;25.92;53.22;97052.38;4207585;28;5704;-76
2022/08/29 11:26:38;;;;;;;;;;;;;;;25.94;53.35;97049.44;4208792;28;5787;-69
2022/08/29 11:28:47;;;;;;;;;;;;;;;25.96;53.09;97053.47;4200641;28;5696;-73
2022/08/29 11:30:57;;;;;;;;;;;;;;;26.00;53.23;97051.78;4205861;28;5840;-72
2022/08/29 11:33:08;;;;;;;;;;;;;;;26.02;52.86;97046.88;4205693;28;5700;-75
2022/08/29 11:35:20;;;;;;;;;;;;;;;26.03;52.63;97043.06;4207780;28;5688;-76
2022/08/29 11:37:47;;;;;;;;;;;;;;;26.04;52.68;97033.84;4207601;28;5834;-72
2022/08/29 11:39:59;;;;;;;;;;;;;;;26.06;52.80;97026.28;4204309;28;5713;-74
2022/08/29 11:42:05;;;;;;;;;;;;;;;26.09;52.49;97020.28;4202730;28;5696;-73
2022/08/29 11:44:18;;;;;;;;;;;;;;;26.13;52.63;97021.31;4216077;28;5761;-73
2022/08/29 11:46:37;;;;;;;;;;;;;;;26.17;52.66;97021.56;4217094;28;5655;-73
2022/08/29 11:48:43;;;;;;;;;;;;;;;26.18;52.57;97023.16;4215955;28;5679;-73
2022/08/29 11:50:48;;;;;;;;;;;;;;;26.25;52.46;97017.38;4216861;28;5695;-73
2022/08/29 11:52:56;;;;;;;;;;;;;;;26.27;52.40;97018.69;4215423;28;5812;-73
2022/08/29 11:55:31;;;;;;;;;;;;;;;26.31;52.28;97021.66;4216947;28;5671;-73
2022/08/29 11:57:54;;;;;;;;;;;;;;;26.33;52.21;97024.88;4203052;28;5804;-73
2022/08/29 12:00:23;;;;;;;;;;;;;;;26.33;52.38;97008.63;4203767;28;5838;-72
2022/08/29 12:02:40;;;;;;;;;;;;;;;26.33;52.11;97022.19;4202177;28;6494;-64
2022/08/29 12:04:53;;;;;;;;;;;;;;;26.34;52.40;97013.75;4208068;28;5815;-67
2022/08/29 12:07:02;;;;;;;;;;;;;;;26.33;52.16;97019.47;4211504;28;5806;-67
2022/08/29 12:09:17;;;;;;;;;;;;;;;26.33;52.07;97014.06;4200974;28;5803;-67
2022/08/29 12:11:21;;;;;;;;;;;;;;;26.34;52.14;97010.25;4200895;28;5696;-67
2022/08/29 12:13:59;;;;;;;;;;;;;;;26.33;52.21;97005.91;4205197;28;5733;-67
2022/08/29 12:16:09;;;;;;;;;;;;;;;26.33;52.36;97012.16;4204932;28;6659;-67
2022/08/29 12:18:44;;;;;;;;;;;;;;;26.32;52.32;97017.84;4203736;28;5700;-67
2022/08/29 12:20:49;;;;;;;;;;;;;;;26.31;51.98;97010.81;4203319;28;5772;-67
2022/08/29 12:23:02;;;;;;;;;;;;;;;26.30;52.05;97009.22;4201345;28;5725;-67
2022/08/29 12:25:46;;;;;;;;;;;;;;;26.32;51.93;97012.44;4200991;28;5719;-68
2022/08/29 12:28:27;;;;;;;;;;;;;;;26.33;51.81;97005.91;4209634;28;5614;-68
2022/08/29 12:30:37;;;;;;;;;;;;;;;26.33;52.03;97011.34;4209529;28;5692;-68
2022/08/29 12:32:54;;;;;;;;;;;;;;;26.34;51.81;97007.53;4201090;28;5836;-67
2022/08/29 12:35:12;;;;;;;;;;;;;;;26.34;51.98;97004.81;4207012;28;5758;-67
2022/08/29 12:37:33;;;;;;;;;;;;;;;26.34;51.76;97002.09;4204165;28;5779;-67
2022/08/29 12:40:01;;;;;;;;;;;;;;;26.36;51.72;96999.91;4208101;28;5120;-67
2022/08/29 12:42:19;;;;;;;;;;;;;;;26.37;51.66;96994.22;4206536;28;5732;-67
2022/08/29 12:44:27;;;;;;;;;;;;;;;26.39;51.61;96996.69;4210207;28;5679;-68
2022/08/29 12:46:36;;;;;;;;;;;;;;;26.40;51.51;97004.50;4201364;28;5931;-68
2022/08/29 12:48:45;;;;;;;;;;;;;;;26.40;51.66;96995.56;4208289;28;5698;-66
2022/08/29 12:51:00;;;;;;;;;;;;;;;26.42;51.57;96990.66;4208786;28;6018;-68
2022/08/29 12:53:06;;;;;;;;;;;;;;;26.43;51.31;96984.16;4204293;28;5712;-68
2022/08/29 12:55:23;;;;;;;;;;;;;;;26.44;51.59;96984.94;4203346;28;5708;-68
2022/08/29 12:57:34;;;;;;;;;;;;;;;26.45;51.47;96983.84;4204901;28;5700;-68
2022/08/29 12:59:44;;;;;;;;;;;;;;;26.45;51.28;96990.06;4211499;28;5806;-68
2022/08/29 13:01:50;;;;;;;;;;;;;;;26.45;51.37;96984.66;4218602;28;5679;-68
2022/08/29 13:04:01;;;;;;;;;;;;;;;26.47;51.07;96977.03;4213358;28;5783;-68
2022/08/29 13:06:08;;;;;;;;;;;;;;;26.46;51.29;96970.00;4216218;28;5691;-68
2022/08/29 13:08:13;;;;;;;;;;;;;;;26.49;51.09;96974.84;4211086;28;5772;-67
2022/08/29 13:10:18;;;;;;;;;;;;;;;26.49;50.96;96974.84;4207562;28;6443;-67
2022/08/29 13:12:26;;;;;;;;;;;;;;;26.51;51.02;96969.97;4206529;28;5696;-67
2022/08/29 13:14:30;;;;;;;;;;;;;;;26.51;50.93;96972.66;4212195;28;5799;-67
2022/08/29 13:16:38;;;;;;;;;;;;;;;26.50;50.91;96968.31;4213886;28;8492;-68
2022/08/29 13:18:43;;;;;;;;;;;;;;;26.51;50.98;96966.44;4207116;28;5834;-68
2022/08/29 13:21:13;;;;;;;;;;;;;;;26.50;50.90;96960.19;4204642;28;5708;-68
2022/08/29 13:23:24;;;;;;;;;;;;;;;26.51;50.84;96955.59;4217876;28;5837;-68
2022/08/29 13:25:27;;;;;;;;;;;;;;;26.50;50.83;96953.97;4219481;28;5866;-67
2022/08/29 13:27:32;;;;;;;;;;;;;;;26.51;50.68;96950.19;4219342;28;5680;-67
2022/08/29 13:29:42;;;;;;;;;;;;;;;26.51;50.59;96952.88;4214661;28;5704;-67
2022/08/29 13:32:16;;;;;;;;;;;;;;;26.52;50.54;96952.59;4211869;28;5683;-68
2022/08/29 13:34:21;;;;;;;;;;;;;;;26.53;50.36;96946.06;4204493;28;5125;-67
2022/08/29 13:36:36;;;;;;;;;;;;;;;26.54;50.43;96944.97;4208188;28;5737;-67
2022/08/29 13:38:39;;;;;;;;;;;;;;;26.54;50.14;96949.59;4212607;28;5686;-67
2022/08/29 13:40:46;;;;;;;;;;;;;;;26.54;50.32;96950.38;4212779;28;5692;-67
2022/08/29 13:42:49;;;;;;;;;;;;;;;26.54;50.01;96950.38;4213545;28;5708;-68
2022/08/29 13:45:23;;;;;;;;;;;;;;;26.53;50.21;96948.78;4214976;28;5750;-67
2022/08/29 13:47:30;;;;;;;;;;;;;;;26.54;49.79;96947.69;4206192;28;5762;-68
2022/08/29 13:49:33;;;;;;;;;;;;;;;26.53;49.89;96951.50;4216430;28;5674;-68
2022/08/29 13:51:38;;;;;;;;;;;;;;;26.55;49.65;96945.78;4211377;28;5754;-69
2022/08/29 13:53:43;;;;;;;;;;;;;;;26.59;49.61;96942.19;4207168;28;5752;-76
2022/08/29 13:55:47;;;;;;;;;;;;;;;26.65;49.45;96938.31;4208150;28;5795;-75
2022/08/29 13:57:54;;;;;;;;;;;;;;;26.68;49.62;96937.72;4207214;28;5880;-79
2022/08/29 13:59:57;;;;;;;;;;;;;;;26.70;49.16;96930.09;4202085;28;5776;-79
2022/08/29 14:02:01;;;;;;;;;;;;;;;26.75;49.10;96933.84;4212721;28;5778;-79
2022/08/29 14:04:14;;;;;;;;;;;;;;;26.78;48.85;96938.66;4206919;28;5680;-79
2022/08/29 14:06:38;;;;;;;;;;;;;;;26.79;48.77;96929.44;4206999;28;6419;-79
2022/08/29 14:08:41;;;;;;;;;;;;;;;26.81;48.84;96927.22;4202769;28;5696;-79
2022/08/29 14:10:47;;;;;;;;;;;;;;;26.84;48.58;96921.22;4212456;28;5783;-78
2022/08/29 14:12:50;;;;;;;;;;;;;;;26.86;48.26;96916.31;4218084;28;5664;-78
2022/08/29 14:14:53;;;;;;;;;;;;;;;26.88;48.19;96923.06;4217976;28;5791;-79
2022/08/29 14:16:57;;;;;;;;;;;;;;;26.86;48.05;96917.13;4217801;28;5790;-78
2022/08/29 14:19:01;;;;;;;;;;;;;;;26.84;48.13;96911.19;4218844;28;5691;-78
2022/08/29 14:21:06;;;;;;;;;;;;;;;26.83;48.03;96917.69;4219250;28;5668;-78
2022/08/29 14:23:09;;;;;;;;;;;;;;;26.83;47.87;96914.19;4219499;28;5680;-78
2022/08/29 14:25:14;;;;;;;;;;;;;;;26.82;47.81;96907.13;4218793;28;5676;-78
2022/08/29 14:27:17;;;;;;;;;;;;;;;26.81;47.70;96908.25;4218382;28;5771;-79
2022/08/29 14:29:22;;;;;;;;;;;;;;;26.80;47.96;96907.44;4218640;28;5687;-79
2022/08/29 14:31:25;;;;;;;;;;;;;;;26.81;47.74;96916.38;4207740;28;6370;-79
2022/08/29 14:33:28;;;;;;;;;;;;;;;26.81;47.88;96911.75;4201968;28;5820;-79
2022/08/29 14:35:31;;;;;;;;;;;;;;;26.80;47.85;96904.72;4201612;28;5731;-78
2022/08/29 14:37:38;;;;;;;;;;;;;;;26.79;47.66;96905.81;4206169;28;5683;-78
2022/08/29 14:39:42;;;;;;;;;;;;;;;26.80;47.53;96890.38;4218339;28;5073;-78
2022/08/29 14:41:45;;;;;;;;;;;;;;;26.80;47.52;96890.38;4212546;28;5844;-78
2022/08/29 14:43:47;;;;;;;;;;;;;;;26.81;47.47;96890.06;4218531;28;5754;-79
2022/08/29 14:45:52;;;;;;;;;;;;;;;26.81;47.53;96887.34;4208976;28;5689;-79
2022/08/29 14:47:55;;;;;;;;;;;;;;;26.81;47.65;96879.22;4210853;28;5690;-78
2022/08/29 14:49:59;;;;;;;;;;;;;;;26.81;47.42;96878.41;4216309;28;5664;-79
2022/08/29 14:52:02;;;;;;;;;;;;;;;26.80;47.32;96868.66;4217639;28;6204;-79
2022/08/29 14:54:09;;;;;;;;;;;;;;;26.86;47.30;96862.88;4216273;28;5706;-79
2022/08/29 14:56:13;;;;;;;;;;;;;;;26.89;47.04;96859.56;4213983;28;5681;-79
2022/08/29 14:58:35;;;;;;;;;;;;;;;26.95;46.77;96860.28;4215573;28;5715;-79
2022/08/29 15:00:39;;;;;;;;;;;;;;;26.96;46.65;96859.19;4215091;28;5757;-79
2022/08/29 15:02:43;;;;;;;;;;;;;;;26.93;46.72;96862.47;4204947;28;5957;-79
2022/08/29 15:04:48;;;;;;;;;;;;;;;26.96;46.67;96861.91;4207966;28;5090;-79
2022/08/29 15:06:51;;;;;;;;;;;;;;;26.96;46.58;96862.72;4204897;28;5671;-79
2022/08/29 15:08:54;;;;;;;;;;;;;;;26.98;46.63;96860.50;4206831;28;5696;-79
2022/08/29 15:10:59;;;;;;;;;;;;;;;26.98;46.45;96865.13;4201865;28;5842;-79
2022/08/29 15:13:02;;;;;;;;;;;;;;;26.98;46.52;96857.00;4203526;28;5802;-80
2022/08/29 15:15:06;;;;;;;;;;;;;;;26.97;46.29;96858.09;4201246;28;5804;-79
2022/08/29 15:17:10;;;;;;;;;;;;;;;26.96;46.30;96864.63;4210706;28;5746;-78
2022/08/29 15:19:14;;;;;;;;;;;;;;;26.96;46.62;96861.91;4212063;28;5807;-78
2022/08/29 15:21:37;;;;;;;;;;;;;;;26.98;46.20;96862.41;4207306;28;5890;-78
2022/08/29 15:23:40;;;;;;;;;;;;;;;26.99;46.00;96861.31;4200665;28;6073;-78
2022/08/29 15:25:43;;;;;;;;;;;;;;;27.01;46.24;96863.72;4208201;28;5682;-78
2022/08/29 15:27:55;;;;;;;;;;;;;;;27.00;46.17;96865.63;4205694;28;5689;-80
2022/08/29 15:29:59;;;;;;;;;;;;;;;26.98;46.12;96857.00;4205103;28;6021;-79
2022/08/29 15:32:02;;;;;;;;;;;;;;;26.94;46.28;96854.03;4210576;28;5679;-79
2022/08/29 15:34:04;;;;;;;;;;;;;;;26.99;46.12;96853.16;4203025;28;5685;-72
2022/08/29 15:36:08;;;;;;;;;;;;;;;27.01;45.97;96845.53;4200796;28;5799;-72
2022/08/29 15:38:11;;;;;;;;;;;;;;;27.03;45.75;96854.22;4208404;28;5755;-72
2022/08/29 15:40:14;;;;;;;;;;;;;;;27.02;45.88;96852.59;4212351;28;5663;-71
2022/08/29 15:42:22;;;;;;;;;;;;;;;27.02;45.79;96846.38;4208201;28;5762;-72
2022/08/29 15:44:28;;;;;;;;;;;;;;;27.03;45.96;96846.06;4207043;28;5082;-72
2022/08/29 15:46:32;;;;;;;;;;;;;;;27.03;45.91;96842.56;4206938;28;5815;-71
2022/08/29 15:48:39;;;;;;;;;;;;;;;27.10;45.85;96846.50;4207132;28;5659;-72
2022/08/29 15:50:42;;;;;;;;;;;;;;;27.09;45.84;96846.81;4202510;28;5711;-72
2022/08/29 15:52:45;;;;;;;;;;;;;;;27.07;45.87;96844.38;4204217;28;5213;-72
2022/08/29 15:54:48;;;;;;;;;;;;;;;27.07;45.88;96841.69;4201654;28;5685;-73
2022/08/29 15:56:51;;;;;;;;;;;;;;;27.08;45.90;96846.00;4204442;28;5776;-72
2022/08/29 15:58:55;;;;;;;;;;;;;;;27.10;45.89;96843.78;4214682;28;5795;-73
2022/08/29 16:00:59;;;;;;;;;;;;;;;27.10;45.83;96843.78;4217132;28;5770;-74
2022/08/29 16:03:03;;;;;;;;;;;;;;;27.09;45.78;96846.81;4217219;28;5700;-73
2022/08/29 16:05:07;;;;;;;;;;;;;;;27.07;46.01;96832.69;4212996;28;6392;-73
2022/08/29 16:07:12;;;;;;;;;;;;;;;27.06;46.07;96840.03;4200347;28;5902;-74
2022/08/29 16:09:15;;;;;;;;;;;;;;;27.10;46.08;96832.13;4200097;28;5692;-71